Time;durP1;ratioP1;P1;durP2;ratioP2;P2;SDS_P1;SDS_P2;PMS_P1;PMS_P2;Temp;Humidity;BMP_temperature;BMP_pressure;BME280_temperature;BME280_humidity;BME280_pressure;Samples;Min_cycle;Max_cycle;Signal;HPM_P1;HPM_P2
2023/12/23 00:00:15;;;;;;;9.02;2.15;;;10.90;99.90;;;;;;4971206;28;20078;-34
2023/12/23 00:02:41;;;;;;;11.38;2.78;;;11.50;99.90;;;;;;4971940;28;20049;-35
2023/12/23 00:05:07;;;;;;;9.20;2.22;;;11.40;99.90;;;;;;4972361;28;20070;-34
2023/12/23 00:07:33;;;;;;;12.98;2.67;;;10.80;99.90;;;;;;4970096;28;20046;-34
2023/12/23 00:09:58;;;;;;;7.47;2.13;;;11.30;99.90;;;;;;4972077;28;20047;-35
2023/12/23 00:12:24;;;;;;;12.75;2.80;;;11.70;99.90;;;;;;4971412;28;20046;-35
2023/12/23 00:14:50;;;;;;;9.68;2.75;;;11.10;99.90;;;;;;4972429;28;20031;-34
2023/12/23 00:17:15;;;;;;;6.70;2.15;;;11.30;99.90;;;;;;4972138;28;20031;-34
2023/12/23 00:19:41;;;;;;;9.70;2.70;;;12.00;99.90;;;;;;4971191;28;20034;-36
2023/12/23 00:22:06;;;;;;;7.38;2.20;;;11.10;99.90;;;;;;4971616;28;20043;-36
2023/12/23 00:24:32;;;;;;;10.20;2.63;;;12.50;99.90;;;;;;4971170;28;20568;-32
2023/12/23 00:26:58;;;;;;;9.27;2.90;;;11.80;99.90;;;;;;4971747;28;20035;-36
2023/12/23 00:29:25;;;;;;;11.13;3.28;;;11.50;99.90;;;;;;4971599;28;20043;-33
2023/12/23 00:31:50;;;;;;;13.63;2.83;;;11.60;99.90;;;;;;4966458;28;20038;-35
2023/12/23 00:34:16;;;;;;;12.20;2.50;;;11.40;99.90;;;;;;4972311;28;20085;-34
2023/12/23 00:36:42;;;;;;;9.18;2.70;;;11.00;99.90;;;;;;4971140;28;20130;-34
2023/12/23 00:39:08;;;;;;;10.63;2.85;;;11.30;99.90;;;;;;4971695;28;20118;-34
2023/12/23 00:41:34;;;;;;;10.30;2.20;;;11.20;99.90;;;;;;4969837;28;20046;-34
2023/12/23 00:44:01;;;;;;;10.32;2.88;;;11.00;99.90;;;;;;4969884;28;20052;-35
2023/12/23 00:46:28;;;;;;;12.85;2.40;;;11.70;99.90;;;;;;4969121;28;20530;-34
2023/12/23 00:48:54;;;;;;;13.85;3.03;;;11.50;99.90;;;;;;4968489;28;20450;-34
2023/12/23 00:51:20;;;;;;;10.18;2.67;;;11.40;99.90;;;;;;4969661;28;20487;-35
2023/12/23 00:53:45;;;;;;;9.77;2.63;;;11.20;99.90;;;;;;4969700;28;20031;-34
2023/12/23 00:56:11;;;;;;;10.00;2.50;;;11.00;99.90;;;;;;4970199;28;20467;-35
2023/12/23 00:58:36;;;;;;;15.25;2.60;;;11.70;99.90;;;;;;4970804;28;20593;-35
2023/12/23 01:01:03;;;;;;;9.45;2.28;;;11.50;99.90;;;;;;4970559;28;20042;-36
2023/12/23 01:03:28;;;;;;;9.13;2.80;;;11.50;99.90;;;;;;4960371;28;20039;-36
2023/12/23 01:05:54;;;;;;;10.38;2.67;;;11.20;99.90;;;;;;4962840;28;20049;-34
2023/12/23 01:08:20;;;;;;;12.93;2.58;;;11.50;99.90;;;;;;4968877;28;20406;-36
2023/12/23 01:10:45;;;;;;;10.20;2.80;;;11.10;99.90;;;;;;4968241;28;20042;-35
2023/12/23 01:13:11;;;;;;;12.95;3.05;;;11.10;99.90;;;;;;4971352;28;20038;-35
2023/12/23 01:15:37;;;;;;;7.28;2.00;;;11.70;99.90;;;;;;4969467;28;20118;-37
2023/12/23 01:18:02;;;;;;;10.65;2.28;;;11.70;99.90;;;;;;4970945;28;20035;-34
2023/12/23 01:20:28;;;;;;;10.20;3.05;;;11.60;99.90;;;;;;4970677;28;20030;-34
2023/12/23 01:22:53;;;;;;;9.45;2.20;;;11.00;99.90;;;;;;4970244;28;20398;-34
2023/12/23 01:25:22;;;;;;;8.45;2.33;;;11.50;99.90;;;;;;4970576;28;20035;-35
2023/12/23 01:27:47;;;;;;;9.70;2.47;;;11.50;99.90;;;;;;4970291;28;20521;-34
2023/12/23 01:30:13;;;;;;;10.70;2.67;;;11.90;99.90;;;;;;4971043;28;20062;-36
2023/12/23 01:32:39;;;;;;;8.00;2.10;;;11.40;99.90;;;;;;4969721;28;20078;-37
2023/12/23 01:35:05;;;;;;;8.75;2.72;;;11.10;99.90;;;;;;4971204;28;20093;-34
2023/12/23 01:37:30;;;;;;;9.70;2.42;;;11.50;99.90;;;;;;4969386;28;20406;-35
2023/12/23 01:39:56;;;;;;;7.72;2.08;;;11.70;99.90;;;;;;4970759;28;20042;-35
2023/12/23 01:42:21;;;;;;;8.93;2.33;;;11.10;99.90;;;;;;4970512;28;20060;-34
2023/12/23 01:44:47;;;;;;;7.13;1.80;;;11.50;99.90;;;;;;4970420;28;20046;-38
2023/12/23 01:47:13;;;;;;;8.77;1.95;;;12.10;99.90;;;;;;4969444;28;20042;-33
2023/12/23 01:49:40;;;;;;;7.40;2.05;;;11.10;99.90;;;;;;4969120;28;20098;-34
2023/12/23 01:52:06;;;;;;;12.45;2.38;;;11.00;99.90;;;;;;4970592;28;20038;-34
2023/12/23 01:54:32;;;;;;;7.70;2.42;;;10.90;99.90;;;;;;4969731;28;20566;-34
2023/12/23 01:56:58;;;;;;;10.35;2.38;;;11.50;99.90;;;;;;4970169;28;20498;-35
2023/12/23 01:59:24;;;;;;;7.93;1.85;;;11.00;99.90;;;;;;4970032;28;20422;-35
2023/12/23 02:01:51;;;;;;;7.53;2.22;;;11.00;99.90;;;;;;4969835;28;20085;-34
2023/12/23 02:04:20;;;;;;;8.70;1.90;;;;;;;;;;4969970;28;20117;-34
2023/12/23 02:06:45;;;;;;;9.23;2.05;;;11.00;99.90;;;;;;4969115;28;20034;-35
2023/12/23 02:09:11;;;;;;;8.88;1.90;;;11.10;99.90;;;;;;4969539;28;20130;-37
2023/12/23 02:12:16;;;;;;;7.90;1.85;;;11.30;99.90;;;;;;4968736;28;20600;-35
2023/12/23 02:14:47;;;;;;;;;;;11.50;99.90;;;;;;4952585;28;20530;-33
2023/12/23 02:17:13;;;;;;;8.88;2.05;;;11.30;99.90;;;;;;4969826;28;20009;-38
2023/12/23 02:19:38;;;;;;;9.88;2.63;;;11.60;99.90;;;;;;4969196;28;20068;-35
2023/12/23 02:22:04;;;;;;;7.82;1.77;;;11.50;99.90;;;;;;4965049;28;20126;-34
2023/12/23 02:24:30;;;;;;;11.18;1.73;;;11.70;99.90;;;;;;4983575;28;20043;-35
2023/12/23 02:27:10;;;;;;;7.63;1.85;;;11.30;99.90;;;;;;4970284;28;20471;-34
2023/12/23 02:29:38;;;;;;;7.13;1.90;;;11.10;99.90;;;;;;4969523;28;20105;-35
2023/12/23 02:32:05;;;;;;;5.85;1.83;;;11.50;99.90;;;;;;4971603;28;20046;-35
2023/12/23 02:34:31;;;;;;;6.63;1.90;;;11.50;99.90;;;;;;4973217;28;20651;-36
2023/12/23 02:36:57;;;;;;;7.20;1.60;;;12.20;99.90;;;;;;4972154;28;20050;-34
2023/12/23 02:39:22;;;;;;;8.32;1.60;;;11.10;99.90;;;;;;4972839;28;20043;-36
2023/12/23 02:41:48;;;;;;;8.60;1.88;;;11.10;99.90;;;;;;4987066;28;20046;-34
2023/12/23 02:44:14;;;;;;;9.68;1.92;;;11.60;99.90;;;;;;4972385;28;20246;-34
2023/12/23 02:46:40;;;;;;;8.60;3.35;;;11.90;99.90;;;;;;4970471;28;20228;-33
2023/12/23 02:49:05;;;;;;;9.65;2.20;;;11.30;99.90;;;;;;4972375;28;20038;-38
2023/12/23 02:51:31;;;;;;;7.80;1.70;;;11.30;99.90;;;;;;4972447;28;20039;-34
2023/12/23 02:53:56;;;;;;;7.57;1.40;;;11.70;99.90;;;;;;4972960;28;20462;-34
2023/12/23 02:56:22;;;;;;;8.30;1.95;;;11.60;99.90;;;;;;4972469;28;20118;-35
2023/12/23 02:58:48;;;;;;;7.10;2.00;;;;;;;;;;4971975;28;20031;-35
2023/12/23 03:01:13;;;;;;;8.45;1.63;;;11.90;99.90;;;;;;4972937;28;20097;-34
2023/12/23 03:03:39;;;;;;;9.50;2.60;;;11.90;99.90;;;;;;4971225;28;20038;-37
2023/12/23 03:06:05;;;;;;;8.23;1.70;;;11.90;99.90;;;;;;4971714;28;20089;-35
2023/12/23 03:08:30;;;;;;;8.02;1.88;;;11.90;99.90;;;;;;4972312;28;20053;-35
2023/12/23 03:10:56;;;;;;;7.07;1.70;;;12.00;99.90;;;;;;4971160;28;20077;-38
2023/12/23 03:13:21;;;;;;;8.45;1.90;;;12.00;99.90;;;;;;4971269;28;20062;-36
2023/12/23 03:15:47;;;;;;;6.63;1.45;;;12.00;99.90;;;;;;4971510;28;20035;-35
2023/12/23 03:18:13;;;;;;;7.65;1.80;;;11.90;99.90;;;;;;4971677;28;20510;-37
2023/12/23 03:20:38;;;;;;;5.63;1.40;;;11.30;99.90;;;;;;4971403;28;20413;-34
2023/12/23 03:23:04;;;;;;;6.72;1.50;;;12.30;99.90;;;;;;4973091;28;20097;-36
2023/12/23 03:25:30;;;;;;;7.30;1.65;;;12.10;99.90;;;;;;4952724;28;20046;-35
2023/12/23 03:27:55;;;;;;;6.47;1.48;;;11.60;99.90;;;;;;4967066;28;20039;-35
2023/12/23 03:30:21;;;;;;;4.55;1.30;;;11.50;99.90;;;;;;4969091;28;20042;-34
2023/12/23 03:32:46;;;;;;;4.70;1.20;;;12.20;99.90;;;;;;4965970;28;20482;-35
2023/12/23 03:35:12;;;;;;;8.45;2.00;;;11.80;99.90;;;;;;4982795;28;20042;-34
2023/12/23 03:37:39;;;;;;;9.05;1.58;;;12.10;99.90;;;;;;4968532;28;20392;-35
2023/12/23 03:40:07;;;;;;;6.50;1.85;;;11.80;99.90;;;;;;4968333;28;20472;-35
2023/12/23 03:42:32;;;;;;;6.88;1.70;;;11.80;99.90;;;;;;4972114;28;20113;-35
2023/12/23 03:44:58;;;;;;;6.40;1.65;;;12.10;99.90;;;;;;4971571;28;20062;-34
2023/12/23 03:47:24;;;;;;;6.90;1.60;;;12.30;99.90;;;;;;4971616;28;20047;-35
2023/12/23 03:49:49;;;;;;;5.88;1.50;;;12.00;99.90;;;;;;4971005;28;20042;-34
2023/12/23 03:52:15;;;;;;;5.68;1.35;;;11.80;99.90;;;;;;4972121;28;20035;-35
2023/12/23 03:54:41;;;;;;;5.72;1.27;;;12.10;99.90;;;;;;4986332;28;20105;-37
2023/12/23 03:57:06;;;;;;;5.03;1.13;;;11.50;99.90;;;;;;4971548;28;20026;-38
2023/12/23 03:59:32;;;;;;;7.50;1.77;;;12.20;99.90;;;;;;4985689;28;20495;-34
2023/12/23 04:01:57;;;;;;;6.45;1.40;;;12.00;99.90;;;;;;4971295;28;20123;-37
2023/12/23 04:04:23;;;;;;;9.57;1.92;;;11.40;99.90;;;;;;4970849;28;20037;-35
2023/12/23 04:06:48;;;;;;;5.97;1.23;;;11.90;99.90;;;;;;4971417;28;20407;-36
2023/12/23 04:09:17;;;;;;;5.22;2.22;;;12.10;99.90;;;;;;4971700;28;20038;-35
2023/12/23 04:11:42;;;;;;;6.72;1.45;;;12.10;99.90;;;;;;4970328;28;20039;-35
2023/12/23 04:14:08;;;;;;;6.93;1.40;;;11.90;99.90;;;;;;4971520;28;20551;-34
2023/12/23 04:16:37;;;;;;;5.75;1.30;;;11.60;99.90;;;;;;4971966;28;20138;-34
2023/12/23 04:19:02;;;;;;;4.53;1.15;;;12.20;99.90;;;;;;4971541;28;20042;-34
2023/12/23 04:21:28;;;;;;;5.15;1.40;;;12.00;99.90;;;;;;4972059;28;20041;-37
2023/12/23 04:23:53;;;;;;;5.45;1.30;;;11.90;99.90;;;;;;4971920;28;20049;-35
2023/12/23 04:26:19;;;;;;;5.80;1.40;;;11.90;99.90;;;;;;4971502;28;20035;-35
2023/12/23 04:28:44;;;;;;;5.88;1.20;;;12.30;99.90;;;;;;4971134;28;20039;-36
2023/12/23 04:31:10;;;;;;;5.00;1.13;;;11.70;99.90;;;;;;4971551;28;20121;-35
2023/12/23 04:33:37;;;;;;;5.03;1.27;;;12.40;99.90;;;;;;4970874;28;20438;-35
2023/12/23 04:36:03;;;;;;;4.28;1.65;;;11.70;99.90;;;;;;4970869;28;20039;-35
2023/12/23 04:38:29;;;;;;;3.38;1.00;;;;;;;;;;4971223;28;20093;-38
2023/12/23 04:40:55;;;;;;;5.47;1.40;;;11.90;99.90;;;;;;4984067;28;20046;-34
2023/12/23 04:43:20;;;;;;;3.58;1.00;;;12.20;99.90;;;;;;4971620;28;20027;-37
2023/12/23 04:45:48;;;;;;;3.55;1.00;;;12.20;99.90;;;;;;4970704;28;20566;-36
2023/12/23 04:48:14;;;;;;;5.03;1.30;;;12.20;99.90;;;;;;4971316;28;20546;-34
2023/12/23 04:50:40;;;;;;;3.08;1.00;;;11.90;99.90;;;;;;4969740;28;20074;-36
2023/12/23 04:53:05;;;;;;;4.47;1.10;;;12.40;99.90;;;;;;4967994;28;20035;-35
2023/12/23 04:55:31;;;;;;;3.40;1.00;;;12.50;99.90;;;;;;4971434;28;20027;-37
2023/12/23 04:57:57;;;;;;;5.55;1.70;;;12.20;99.90;;;;;;4970995;28;20066;-35
2023/12/23 05:00:23;;;;;;;5.30;1.40;;;12.40;99.90;;;;;;4971563;28;20129;-36
2023/12/23 05:02:49;;;;;;;2.95;0.88;;;12.90;99.90;;;;;;4969612;28;20053;-34
2023/12/23 05:05:14;;;;;;;3.67;0.90;;;12.50;99.90;;;;;;4984786;28;20085;-34
2023/12/23 05:07:40;;;;;;;2.83;0.80;;;12.90;99.90;;;;;;4971165;28;20054;-34
2023/12/23 05:10:06;;;;;;;3.72;1.00;;;12.90;99.90;;;;;;4968273;28;20035;-34
2023/12/23 05:12:32;;;;;;;3.20;0.98;;;12.70;99.90;;;;;;4970869;28;20046;-33
2023/12/23 05:14:57;;;;;;;3.35;0.90;;;12.60;99.90;;;;;;4970963;28;20042;-35
2023/12/23 05:17:23;;;;;;;4.07;0.90;;;12.90;99.90;;;;;;4971165;28;20026;-34
2023/12/23 05:19:49;;;;;;;3.30;0.93;;;12.60;99.90;;;;;;4971355;28;20053;-36
2023/12/23 05:22:15;;;;;;;3.72;0.93;;;12.90;99.90;;;;;;4969508;28;20039;-34
2023/12/23 05:24:42;;;;;;;4.32;1.00;;;12.70;99.90;;;;;;4971072;28;20043;-35
2023/12/23 05:27:08;;;;;;;2.78;0.90;;;12.70;99.90;;;;;;4964742;28;20043;-37
2023/12/23 05:29:34;;;;;;;4.25;1.02;;;13.00;99.90;;;;;;4968848;28;20092;-34
2023/12/23 05:32:01;;;;;;;3.10;0.85;;;12.90;99.90;;;;;;4964189;28;20092;-33
2023/12/23 05:34:26;;;;;;;2.47;0.82;;;13.30;99.90;;;;;;4969212;28;20066;-37
2023/12/23 05:36:52;;;;;;;4.70;0.80;;;13.00;99.90;;;;;;4969738;28;20033;-37
2023/12/23 05:39:17;;;;;;;3.45;1.02;;;13.20;99.90;;;;;;4968774;28;20030;-36
2023/12/23 05:41:43;;;;;;;3.25;0.95;;;13.10;99.90;;;;;;4970691;28;20557;-34
2023/12/23 05:44:09;;;;;;;2.03;0.75;;;12.60;99.90;;;;;;4970158;28;20046;-34
2023/12/23 05:46:34;;;;;;;2.70;0.70;;;12.80;99.90;;;;;;4969448;28;20062;-35
2023/12/23 05:49:00;;;;;;;2.55;0.73;;;13.00;99.90;;;;;;4968733;28;20042;-35
2023/12/23 05:51:25;;;;;;;2.97;0.90;;;12.90;99.90;;;;;;4968991;28;20415;-36
2023/12/23 05:53:51;;;;;;;2.88;1.00;;;13.70;99.90;;;;;;4969386;28;20043;-35
2023/12/23 05:56:17;;;;;;;2.38;0.90;;;12.90;99.90;;;;;;4984744;28;20046;-35
2023/12/23 05:58:42;;;;;;;3.72;0.80;;;12.90;99.90;;;;;;4970807;28;20031;-36
2023/12/23 06:01:09;;;;;;;1.90;0.70;;;12.90;99.90;;;;;;4969809;28;20042;-35
2023/12/23 06:03:34;;;;;;;5.60;0.95;;;13.00;99.90;;;;;;4971278;28;20174;-34
2023/12/23 06:06:03;;;;;;;3.45;0.80;;;13.10;99.90;;;;;;4972515;28;20472;-35
2023/12/23 06:08:29;;;;;;;2.05;0.75;;;13.40;99.90;;;;;;4973398;28;20043;-34
2023/12/23 06:10:55;;;;;;;2.17;0.82;;;12.60;99.90;;;;;;4973603;28;20081;-36
2023/12/23 06:13:21;;;;;;;2.30;0.70;;;13.10;99.90;;;;;;4973944;28;20045;-35
2023/12/23 06:15:46;;;;;;;2.95;0.70;;;12.90;99.90;;;;;;4973329;28;20077;-34
2023/12/23 06:18:12;;;;;;;1.77;0.70;;;13.20;99.90;;;;;;4973492;28;20463;-34
2023/12/23 06:20:38;;;;;;;3.10;0.60;;;13.50;99.90;;;;;;4972030;28;20038;-38
2023/12/23 06:23:03;;;;;;;2.03;0.60;;;13.60;99.90;;;;;;4973770;28;20113;-36
2023/12/23 06:25:32;;;;;;;3.83;0.80;;;;;;;;;;4972408;28;20047;-36
2023/12/23 06:27:58;;;;;;;3.45;1.02;;;13.00;99.90;;;;;;4972448;28;20058;-35
2023/12/23 06:30:23;;;;;;;3.20;0.70;;;13.10;99.90;;;;;;4988070;28;20412;-35
2023/12/23 06:32:49;;;;;;;2.03;0.68;;;13.30;99.90;;;;;;4974441;28;20479;-34
2023/12/23 06:35:15;;;;;;;2.35;0.80;;;13.50;99.90;;;;;;4971853;28;20533;-34
2023/12/23 06:37:41;;;;;;;1.73;0.68;;;13.50;99.90;;;;;;4955896;28;20075;-35
2023/12/23 06:40:07;;;;;;;2.80;0.75;;;13.10;99.90;;;;;;4973401;28;20047;-33
2023/12/23 06:42:33;;;;;;;3.13;0.70;;;13.40;99.90;;;;;;4970948;28;20050;-35
2023/12/23 06:44:58;;;;;;;1.40;0.60;;;13.40;99.90;;;;;;4973323;28;20043;-35
2023/12/23 06:47:24;;;;;;;1.77;0.70;;;13.60;99.90;;;;;;4972214;28;20042;-36
2023/12/23 06:49:50;;;;;;;1.95;0.65;;;13.90;99.90;;;;;;4973480;28;20104;-34
2023/12/23 06:52:15;;;;;;;2.67;0.70;;;13.70;99.90;;;;;;4984984;28;20495;-37
2023/12/23 06:54:41;;;;;;;2.40;0.65;;;13.10;99.90;;;;;;4972804;28;20041;-38
2023/12/23 06:57:06;;;;;;;2.08;0.65;;;13.80;99.90;;;;;;4972982;28;20035;-35
2023/12/23 06:59:32;;;;;;;1.50;0.60;;;13.20;99.90;;;;;;4973684;28;20117;-35
2023/12/23 07:01:57;;;;;;;3.05;0.80;;;14.10;99.90;;;;;;4973122;28;20030;-34
2023/12/23 07:04:23;;;;;;;2.30;0.70;;;14.00;99.90;;;;;;4972531;28;20085;-35
2023/12/23 07:06:50;;;;;;;3.90;1.00;;;13.30;99.90;;;;;;4955477;28;20133;-34
2023/12/23 07:09:15;;;;;;;3.85;0.93;;;13.80;99.90;;;;;;4972741;28;20542;-35
2023/12/23 07:11:41;;;;;;;3.20;0.75;;;13.20;99.90;;;;;;4972925;28;20130;-36
2023/12/23 07:14:07;;;;;;;2.42;0.80;;;13.20;99.90;;;;;;4972841;28;20054;-35
2023/12/23 07:16:32;;;;;;;3.03;0.80;;;13.20;99.90;;;;;;4970280;28;20064;-36
2023/12/23 07:18:58;;;;;;;2.53;0.70;;;13.80;99.90;;;;;;4987431;28;20038;-35
2023/12/23 07:21:23;;;;;;;2.78;1.10;;;13.80;99.90;;;;;;4972749;28;20046;-36
2023/12/23 07:23:49;;;;;;;3.50;0.75;;;13.70;99.90;;;;;;4972464;28;20034;-36
2023/12/23 07:26:14;;;;;;;1.90;0.65;;;13.70;99.90;;;;;;4971178;28;20062;-35
2023/12/23 07:28:40;;;;;;;4.07;0.85;;;13.40;99.90;;;;;;4972765;28;20043;-34
2023/12/23 07:31:06;;;;;;;1.60;0.63;;;13.90;99.90;;;;;;4972906;28;20453;-38
2023/12/23 07:33:32;;;;;;;4.28;1.10;;;14.00;99.90;;;;;;4971951;28;20038;-35
2023/12/23 07:35:57;;;;;;;1.20;0.60;;;13.90;99.90;;;;;;4971964;28;20490;-35
2023/12/23 07:38:23;;;;;;;2.38;0.70;;;14.20;99.90;;;;;;4972645;28;20035;-37
2023/12/23 07:40:49;;;;;;;1.42;0.60;;;13.40;99.90;;;;;;4969048;28;20108;-35
2023/12/23 07:43:15;;;;;;;1.02;0.50;;;13.70;99.90;;;;;;4972755;28;20046;-36
2023/12/23 07:45:41;;;;;;;2.83;0.70;;;13.70;99.90;;;;;;4970720;28;20518;-35
2023/12/23 07:48:07;;;;;;;4.88;1.00;;;13.80;99.90;;;;;;4971799;28;20121;-35
2023/12/23 07:50:33;;;;;;;6.20;1.50;;;13.50;99.90;;;;;;4971225;28;20185;-36
2023/12/23 07:52:58;;;;;;;40.20;12.18;;;14.20;99.90;;;;;;4972068;28;20046;-37
2023/12/23 07:55:24;;;;;;;35.42;9.90;;;14.00;99.90;;;;;;4971596;28;20134;-35
2023/12/23 07:57:50;;;;;;;38.20;8.77;;;14.30;99.90;;;;;;4971542;28;20391;-38
2023/12/23 08:00:16;;;;;;;21.25;6.75;;;13.70;99.90;;;;;;4984197;28;20035;-35
2023/12/23 08:02:43;;;;;;;27.65;7.50;;;13.70;99.90;;;;;;4971670;28;20046;-35
2023/12/23 08:05:08;;;;;;;22.17;6.10;;;14.20;99.90;;;;;;4971228;28;20046;-35
2023/12/23 08:07:34;;;;;;;23.48;6.32;;;14.00;99.90;;;;;;4968324;28;20499;-35
2023/12/23 08:09:59;;;;;;;26.08;6.95;;;14.30;99.90;;;;;;4967136;28;20043;-36
2023/12/23 08:12:25;;;;;;;21.17;6.35;;;14.40;99.90;;;;;;4970748;28;20122;-35
2023/12/23 08:14:51;;;;;;;38.60;9.68;;;14.60;99.90;;;;;;4970775;28;20105;-35
2023/12/23 08:17:16;;;;;;;33.90;10.45;;;14.60;1.00;;;;;;4969876;28;20126;-38
2023/12/23 08:19:42;;;;;;;42.78;10.85;;;14.80;1.00;;;;;;4967518;28;20034;-34
2023/12/23 08:22:08;;;;;;;31.02;9.40;;;14.20;1.00;;;;;;4966957;28;20035;-37
2023/12/23 08:24:34;;;;;;;29.15;8.32;;;14.40;1.00;;;;;;4967155;28;20054;-35
2023/12/23 08:27:00;;;;;;;34.17;8.45;;;14.70;1.00;;;;;;4965524;28;20043;-35
2023/12/23 08:29:26;;;;;;;37.72;8.70;;;14.20;1.00;;;;;;4966844;28;20119;-35
2023/12/23 08:31:52;;;;;;;22.83;6.53;;;14.60;1.00;;;;;;4970564;28;20069;-35
2023/12/23 08:34:18;;;;;;;25.85;7.80;;;14.40;1.00;;;;;;4970793;28;20066;-34
2023/12/23 08:36:44;;;;;;;21.05;6.07;;;14.20;1.00;;;;;;4985616;28;20034;-35
2023/12/23 08:39:10;;;;;;;19.13;6.38;;;14.30;1.00;;;;;;4970107;28;20043;-38
2023/12/23 08:41:35;;;;;;;17.35;5.53;;;14.40;1.00;;;;;;4968517;28;20035;-35
2023/12/23 08:44:04;;;;;;;16.33;5.75;;;14.10;1.00;;;;;;4971283;28;20033;-35
2023/12/23 08:46:30;;;;;;;17.80;7.43;;;14.30;1.00;;;;;;4969244;28;20046;-35
2023/12/23 08:48:56;;;;;;;13.73;4.82;;;14.60;1.00;;;;;;4949822;28;20039;-38
2023/12/23 08:51:22;;;;;;;14.25;4.13;;;14.40;1.00;;;;;;4969134;28;20129;-36
2023/12/23 08:53:48;;;;;;;13.95;4.88;;;14.30;1.00;;;;;;4965163;28;20122;-35
2023/12/23 08:56:14;;;;;;;13.55;4.30;;;14.30;1.00;;;;;;4967178;28;20055;-35
2023/12/23 08:58:39;;;;;;;14.38;4.07;;;14.30;1.00;;;;;;4968670;28;20455;-35
2023/12/23 09:01:05;;;;;;;15.68;3.83;;;14.50;1.00;;;;;;4970869;28;20043;-37
2023/12/23 09:03:31;;;;;;;12.60;3.80;;;14.40;1.00;;;;;;4970927;28;20046;-37
2023/12/23 09:05:58;;;;;;;9.48;3.20;;;14.40;1.00;;;;;;4968841;28;20050;-36
2023/12/23 09:08:24;;;;;;;10.90;3.42;;;14.80;1.00;;;;;;4970753;28;20045;-35
2023/12/23 09:10:49;;;;;;;13.80;3.85;;;14.40;1.00;;;;;;4962219;28;20121;-34
2023/12/23 09:13:15;;;;;;;9.20;2.92;;;14.50;1.00;;;;;;4971266;28;20170;-34
2023/12/23 09:15:41;;;;;;;5.97;2.33;;;14.40;1.00;;;;;;4970186;28;20038;-35
2023/12/23 09:18:06;;;;;;;11.20;3.35;;;14.50;1.00;;;;;;4953655;28;20049;-37
2023/12/23 09:20:32;;;;;;;14.27;3.95;;;13.80;1.00;;;;;;4969095;28;20042;-34
2023/12/23 09:22:58;;;;;;;8.32;2.83;;;14.30;1.00;;;;;;4970259;28;20105;-36
2023/12/23 09:25:24;;;;;;;9.77;2.88;;;14.60;1.00;;;;;;4970096;28;20030;-35
2023/12/23 09:27:50;;;;;;;8.30;2.80;;;14.60;1.00;;;;;;4970940;28;20514;-34
2023/12/23 09:30:15;;;;;;;7.88;2.20;;;14.40;1.00;;;;;;4970863;28;20406;-35
2023/12/23 09:32:41;;;;;;;6.72;1.83;;;14.50;1.00;;;;;;4970779;28;20078;-35
2023/12/23 09:35:07;;;;;;;9.15;2.42;;;14.50;1.00;;;;;;4970166;28;20061;-35
2023/12/23 09:37:32;;;;;;;8.95;2.55;;;14.50;1.00;;;;;;4969997;28;20074;-34
2023/12/23 09:40:01;;;;;;;6.80;2.10;;;14.30;1.00;;;;;;4970770;28;20066;-35
2023/12/23 09:42:31;;;;;;;6.32;1.77;;;14.50;1.00;;;;;;4970570;28;20062;-34
2023/12/23 09:44:57;;;;;;;7.53;1.88;;;14.50;1.00;;;;;;4970693;28;20046;-35
2023/12/23 09:47:22;;;;;;;7.20;1.92;;;14.60;1.00;;;;;;4969798;28;20038;-37
2023/12/23 09:49:48;;;;;;;6.10;1.48;;;14.80;1.00;;;;;;4970728;28;20067;-34
2023/12/23 09:52:14;;;;;;;9.50;1.70;;;14.60;1.00;;;;;;4970949;28;20031;-37
2023/12/23 09:54:47;;;;;;;6.55;1.40;;;14.10;1.00;;;;;;4970324;28;20105;-38
2023/12/23 09:57:13;;;;;;;9.98;2.05;;;14.50;1.00;;;;;;4970498;28;20062;-36
2023/12/23 09:59:39;;;;;;;7.40;1.50;;;14.60;1.00;;;;;;4970381;28;20042;-36
2023/12/23 10:02:05;;;;;;;5.97;1.38;;;14.40;1.00;;;;;;4970858;28;20094;-37
2023/12/23 10:04:31;;;;;;;4.90;1.30;;;14.70;1.00;;;;;;4984828;28;20506;-37
2023/12/23 10:06:56;;;;;;;4.25;1.45;;;14.70;1.00;;;;;;4970546;28;20038;-33
2023/12/23 10:09:23;;;;;;;4.57;1.52;;;14.50;1.00;;;;;;4970210;28;20201;-36
2023/12/23 10:11:49;;;;;;;5.30;1.52;;;14.20;1.00;;;;;;4964999;28;20038;-34
2023/12/23 10:14:14;;;;;;;4.15;1.42;;;14.30;1.00;;;;;;4970718;28;20057;-37
2023/12/23 10:16:44;;;;;;;4.18;1.10;;;14.50;1.00;;;;;;4969405;28;20553;-35
2023/12/23 10:19:09;;;;;;;3.75;1.10;;;14.40;1.00;;;;;;4971064;28;20453;-36
2023/12/23 10:21:35;;;;;;;4.10;1.20;;;14.80;1.00;;;;;;4970250;28;20126;-35
2023/12/23 10:24:01;;;;;;;3.95;1.00;;;14.60;1.00;;;;;;4970861;28;20050;-36
2023/12/23 10:26:29;;;;;;;4.13;1.10;;;14.90;1.00;;;;;;4969373;28;20053;-34
2023/12/23 10:29:01;;;;;;;5.20;1.10;;;14.10;1.00;;;;;;4969342;28;20065;-36
2023/12/23 10:31:31;;;;;;;4.75;1.27;;;15.00;1.00;;;;;;4968651;28;20421;-36
2023/12/23 10:34:00;;;;;;;5.53;1.35;;;14.10;1.00;;;;;;4969580;28;20053;-34
2023/12/23 10:36:26;;;;;;;4.18;1.20;;;14.40;1.00;;;;;;4968275;28;20566;-39
2023/12/23 10:39:00;;;;;;;3.95;1.40;;;14.40;1.00;;;;;;4970532;28;20255;-36
2023/12/23 10:41:50;;;;;;;5.10;1.10;;;13.90;1.00;;;;;;4970150;28;20057;-35
2023/12/23 10:44:17;;;;;;;4.53;1.40;;;14.10;1.00;;;;;;4968736;28;20097;-37
2023/12/23 10:46:45;;;;;;;4.63;1.45;;;14.50;1.00;;;;;;4969239;28;20114;-37
2023/12/23 10:49:12;;;;;;;5.57;1.30;;;14.60;1.00;;;;;;4969025;28;20059;-36
2023/12/23 10:51:39;;;;;;;6.93;1.52;;;13.60;1.00;;;;;;4987629;28;20499;-35
2023/12/23 10:54:08;;;;;;;4.68;1.30;;;14.20;1.00;;;;;;4973827;28;20057;-35
2023/12/23 10:56:35;;;;;;;4.25;1.20;;;14.30;1.00;;;;;;4971252;28;20070;-37
2023/12/23 10:59:03;;;;;;;3.65;1.30;;;14.00;1.00;;;;;;4972750;28;20112;-35
2023/12/23 11:01:32;;;;;;;4.93;1.67;;;14.20;1.00;;;;;;4973430;28;20208;-36
2023/12/23 11:04:02;;;;;;;3.85;1.20;;;14.20;1.00;;;;;;4973642;28;20035;-37
2023/12/23 11:06:39;;;;;;;4.82;1.40;;;14.60;1.00;;;;;;4984127;28;20106;-35
2023/12/23 11:09:08;;;;;;;4.05;1.05;;;14.30;1.00;;;;;;4970152;28;20129;-35
2023/12/23 11:11:34;;;;;;;5.30;1.20;;;14.50;1.00;;;;;;4968327;28;20129;-36
2023/12/23 11:13:59;;;;;;;5.32;1.52;;;14.40;1.00;;;;;;4972397;28;20121;-35
2023/12/23 11:16:25;;;;;;;4.82;1.52;;;13.90;1.00;;;;;;4972566;28;20465;-38
2023/12/23 11:18:54;;;;;;;5.38;1.83;;;14.20;1.00;;;;;;4973191;28;20093;-35
2023/12/23 11:21:19;;;;;;;5.80;1.40;;;13.90;1.00;;;;;;4973337;28;20118;-35
2023/12/23 11:23:46;;;;;;;4.60;1.20;;;14.20;1.00;;;;;;4971537;28;20050;-38
2023/12/23 11:26:40;;;;;;;7.30;1.77;;;13.60;1.00;;;;;;4972785;28;20045;-36
2023/12/23 11:29:06;;;;;;;6.13;1.60;;;14.20;1.00;;;;;;4969508;28;20047;-34
2023/12/23 11:31:32;;;;;;;4.63;1.30;;;13.80;1.00;;;;;;4973029;28;20051;-35
2023/12/23 11:34:11;;;;;;;4.35;1.48;;;14.10;1.00;;;;;;4973018;28;20528;-34
2023/12/23 11:36:36;;;;;;;4.55;1.65;;;14.40;1.00;;;;;;4970929;28;20050;-36
2023/12/23 11:39:02;;;;;;;4.32;1.50;;;14.10;1.00;;;;;;4972765;28;20115;-38
2023/12/23 11:41:29;;;;;;;6.53;2.08;;;14.10;1.00;;;;;;4971687;28;20414;-38
2023/12/23 11:43:55;;;;;;;5.07;1.30;;;14.20;1.00;;;;;;4972589;28;20466;-38
2023/12/23 11:46:24;;;;;;;4.63;1.50;;;13.40;1.00;;;;;;4972093;28;20410;-36
2023/12/23 11:48:49;;;;;;;5.78;1.40;;;13.30;1.00;;;;;;4972281;28;20094;-34
2023/12/23 11:51:15;;;;;;;5.53;1.60;;;13.50;1.00;;;;;;4972974;28;20035;-34
2023/12/23 11:53:41;;;;;;;5.22;1.05;;;13.30;1.00;;;;;;4972562;28;20049;-38
2023/12/23 11:56:07;;;;;;;3.33;1.10;;;13.80;1.00;;;;;;4970932;28;20417;-36
2023/12/23 11:58:33;;;;;;;4.10;1.73;;;13.70;1.00;;;;;;4971260;28;20125;-36
2023/12/23 12:00:59;;;;;;;6.10;1.73;;;13.50;1.00;;;;;;4969196;28;20047;-36
2023/12/23 12:03:24;;;;;;;4.95;1.45;;;13.30;1.00;;;;;;4972712;28;20113;-38
2023/12/23 12:05:57;;;;;;;4.00;1.10;;;13.90;1.00;;;;;;4971614;28;20578;-36
2023/12/23 12:08:24;;;;;;;4.03;1.10;;;13.40;1.00;;;;;;4972053;28;20384;-37
2023/12/23 12:10:50;;;;;;;3.97;1.13;;;14.00;1.00;;;;;;4970516;28;20046;-36
2023/12/23 12:13:15;;;;;;;3.47;1.10;;;13.90;1.00;;;;;;4972328;28;20288;-37
2023/12/23 12:15:41;;;;;;;4.10;1.10;;;13.50;1.00;;;;;;4971437;28;20054;-39
2023/12/23 12:18:08;;;;;;;4.28;1.27;;;13.80;1.00;;;;;;4972110;28;20049;-36
2023/12/23 12:20:33;;;;;;;3.53;0.98;;;14.00;1.00;;;;;;4972340;28;20070;-36
2023/12/23 12:23:01;;;;;;;5.47;1.88;;;13.30;1.00;;;;;;4972079;28;20038;-37
2023/12/23 12:25:28;;;;;;;6.10;1.98;;;13.80;1.00;;;;;;4971968;28;20097;-38
2023/12/23 12:27:54;;;;;;;6.25;2.25;;;13.50;1.00;;;;;;4970339;28;20097;-36
2023/12/23 12:30:20;;;;;;;6.45;1.98;;;13.60;1.00;;;;;;4970364;28;20046;-36
2023/12/23 12:32:46;;;;;;;9.43;2.40;;;13.00;1.00;;;;;;4972055;28;20130;-35
2023/12/23 12:35:12;;;;;;;6.85;2.00;;;13.70;1.00;;;;;;4972195;28;20390;-37
2023/12/23 12:37:39;;;;;;;9.45;2.47;;;13.50;1.00;;;;;;4970255;28;20043;-36
2023/12/23 12:40:09;;;;;;;9.77;2.60;;;13.90;1.00;;;;;;4971715;28;20053;-36
2023/12/23 12:42:35;;;;;;;9.77;3.00;;;13.60;99.90;;;;;;4970193;28;20125;-36
2023/12/23 12:45:05;;;;;;;13.40;2.85;;;13.60;1.00;;;;;;4971678;28;20042;-37